createdAt,value
2019-02-11T00:00:07.796Z,3.96
2019-02-11T00:01:07.824Z,3.99
2019-02-11T00:02:07.820Z,3.98
2019-02-11T00:03:07.761Z,3.92
2019-02-11T00:04:07.755Z,3.88
2019-02-11T00:05:07.740Z,3.92
2019-02-11T00:06:07.738Z,3.90
2019-02-11T00:07:07.719Z,3.92
2019-02-11T00:08:07.747Z,3.94
2019-02-11T00:09:07.700Z,3.90
2019-02-11T00:10:07.688Z,3.88
2019-02-11T00:11:07.679Z,3.84
2019-02-11T00:12:07.670Z,3.90
2019-02-11T00:13:10.605Z,3.88
2019-02-11T00:14:07.685Z,3.99
2019-02-11T00:15:07.638Z,3.91
2019-02-11T00:16:07.624Z,3.94
2019-02-11T00:17:07.615Z,3.84
2019-02-11T00:18:07.602Z,3.85
2019-02-11T00:19:07.632Z,3.90
2019-02-11T00:20:07.577Z,4.02
2019-02-11T00:21:07.614Z,3.98
2019-02-11T00:22:07.557Z,4.00
2019-02-11T00:23:07.543Z,3.88
2019-02-11T00:24:07.578Z,3.98
2019-02-11T00:25:07.526Z,3.94
2019-02-11T00:26:07.515Z,3.99
2019-02-11T00:27:07.502Z,3.88
2019-02-11T00:28:07.495Z,4.00
2019-02-11T00:29:07.492Z,3.90
2019-02-11T00:30:07.521Z,3.87
2019-02-11T00:31:07.462Z,3.90
2019-02-11T00:32:07.455Z,3.96
2019-02-11T00:33:07.438Z,3.91
2019-02-11T00:34:07.435Z,3.91
2019-02-11T00:35:07.416Z,3.90
2019-02-11T00:36:07.444Z,3.90
2019-02-11T00:37:07.395Z,3.92
2019-02-11T00:38:07.387Z,3.92
2019-02-11T00:39:07.377Z,3.96
2019-02-11T00:40:07.364Z,3.96
2019-02-11T00:41:07.390Z,3.90
2019-02-11T00:42:07.341Z,3.98
2019-02-11T00:43:07.335Z,3.99
2019-02-11T00:44:07.355Z,3.96
2019-02-11T00:45:07.349Z,3.99
2019-02-11T00:46:07.297Z,3.91
2019-02-11T00:47:07.284Z,3.94
2019-02-11T00:48:07.331Z,3.90
2019-02-11T00:49:07.266Z,3.91
2019-02-11T00:50:07.253Z,3.91
2019-02-11T00:51:07.288Z,3.88
2019-02-11T00:52:07.231Z,3.85
2019-02-11T00:53:07.260Z,3.74
2019-02-11T00:54:07.249Z,3.76
2019-02-11T00:55:07.199Z,3.85
2019-02-11T00:56:07.190Z,3.73
2019-02-11T00:57:07.176Z,3.82
2019-02-11T00:58:07.168Z,3.80
2019-02-11T00:59:07.196Z,3.81
2019-02-11T01:00:07.144Z,3.76
2019-02-11T01:01:07.131Z,3.76
2019-02-11T01:02:07.123Z,3.74
2019-02-11T01:03:07.115Z,3.73
2019-02-11T01:04:07.108Z,3.81
2019-02-11T01:05:07.134Z,3.74
2019-02-11T01:06:07.079Z,3.78
2019-02-11T01:07:07.726Z,3.72
2019-02-11T01:08:07.057Z,3.73
2019-02-11T01:09:07.047Z,3.70
2019-02-11T01:10:07.036Z,3.69
2019-02-11T01:11:07.070Z,3.70
2019-02-11T01:12:07.021Z,3.70
2019-02-11T01:13:07.002Z,3.80
2019-02-11T01:14:07.034Z,3.69
2019-02-11T01:15:06.984Z,3.70
2019-02-11T01:16:06.973Z,3.72
2019-02-11T01:17:06.963Z,3.64
2019-02-11T01:18:06.988Z,3.66
2019-02-11T01:19:06.943Z,3.70
2019-02-11T01:20:06.967Z,3.66
2019-02-11T01:21:06.914Z,3.69
2019-02-11T01:22:06.912Z,3.62
2019-02-11T01:23:06.894Z,3.63
2019-02-11T01:24:06.887Z,3.67
2019-02-11T01:25:06.876Z,3.73
2019-02-11T01:26:06.912Z,3.51
2019-02-11T01:27:06.877Z,3.60
2019-02-11T01:28:06.897Z,3.52
2019-02-11T01:29:06.829Z,3.55
2019-02-11T01:30:06.871Z,3.44
2019-02-11T01:31:06.807Z,3.44
2019-02-11T01:32:06.800Z,3.33
2019-02-11T01:33:06.796Z,3.46
2019-02-11T01:34:06.780Z,3.49
2019-02-11T01:35:06.768Z,3.37
2019-02-11T01:36:06.827Z,3.42
2019-02-11T01:37:06.781Z,3.44
2019-02-11T01:38:06.734Z,3.37
2019-02-11T01:39:06.765Z,3.36
2019-02-11T01:40:06.716Z,3.33
2019-02-11T01:41:06.702Z,3.44
2019-02-11T01:42:06.694Z,3.29
2019-02-11T01:43:06.680Z,3.36
2019-02-11T01:44:06.667Z,3.26
2019-02-11T01:45:06.701Z,3.41
2019-02-11T01:46:06.644Z,3.36
2019-02-11T01:47:06.633Z,3.33
2019-02-11T01:48:06.629Z,3.33
2019-02-11T01:49:06.613Z,3.33
2019-02-11T01:50:06.604Z,3.41
2019-02-11T01:51:06.632Z,3.25
2019-02-11T01:52:06.587Z,3.32
2019-02-11T01:53:06.565Z,3.36
2019-02-11T01:54:06.560Z,3.26
2019-02-11T01:55:06.547Z,3.29
2019-02-11T01:56:06.588Z,3.33
2019-02-11T01:57:06.530Z,3.33
2019-02-11T01:58:06.528Z,3.27
2019-02-11T01:59:06.502Z,3.29
2019-02-11T02:00:06.495Z,3.37
2019-02-11T02:01:06.486Z,3.30
2019-02-11T02:02:06.518Z,3.25
2019-02-11T02:03:06.472Z,3.35
2019-02-11T02:04:06.447Z,3.29
2019-02-11T02:05:06.437Z,3.27
2019-02-11T02:06:06.443Z,3.26
2019-02-11T02:07:06.459Z,3.29
2019-02-11T02:08:06.406Z,3.33
2019-02-11T02:09:06.393Z,3.32
2019-02-11T02:10:06.381Z,3.30
2019-02-11T02:11:06.381Z,3.17
2019-02-11T02:12:06.366Z,3.20
2019-02-11T02:13:06.390Z,3.32
2019-02-11T02:14:06.338Z,3.27
2019-02-11T02:15:06.329Z,3.29
2019-02-11T02:16:06.322Z,3.32
2019-02-11T02:17:06.321Z,3.26
2019-02-11T02:18:06.333Z,3.32
2019-02-11T02:19:06.286Z,3.23
2019-02-11T02:20:06.278Z,3.29
2019-02-11T02:21:06.263Z,3.33
2019-02-11T02:22:06.294Z,3.26
2019-02-11T02:23:06.250Z,3.36
2019-02-11T02:24:06.228Z,3.35
2019-02-11T02:25:06.222Z,3.41
2019-02-11T02:26:06.212Z,3.35
2019-02-11T02:27:06.240Z,3.45
2019-02-11T02:28:06.229Z,3.49
2019-02-11T02:29:06.178Z,3.45
2019-02-11T02:30:06.174Z,3.48
2019-02-11T02:31:06.161Z,3.52
2019-02-11T02:32:06.156Z,3.55
2019-02-11T02:33:06.131Z,3.46
2019-02-11T02:34:06.164Z,3.49
2019-02-11T02:35:06.110Z,3.62
2019-02-11T02:36:06.115Z,3.55
2019-02-11T02:37:06.089Z,3.60
2019-02-11T02:38:06.080Z,3.59
2019-02-11T02:39:06.109Z,3.55
2019-02-11T02:40:06.060Z,3.66
2019-02-11T02:41:06.046Z,3.59
2019-02-11T02:42:06.041Z,3.59
2019-02-11T02:43:06.032Z,3.60
2019-02-11T02:44:06.015Z,3.62
2019-02-11T02:45:06.041Z,3.62
2019-02-11T02:46:06.038Z,3.59
2019-02-11T02:47:05.982Z,3.59
2019-02-11T02:48:05.971Z,3.56
2019-02-11T02:49:06.004Z,3.72
2019-02-11T02:50:05.948Z,3.62
2019-02-11T02:51:05.943Z,3.64
2019-02-11T02:52:05.928Z,3.55
2019-02-11T02:53:05.915Z,3.52
2019-02-11T02:54:05.913Z,3.73
2019-02-11T02:55:05.936Z,3.63
2019-02-11T02:56:05.885Z,3.72
2019-02-11T02:57:05.868Z,3.73
2019-02-11T02:58:05.862Z,3.70
2019-02-11T02:59:05.901Z,3.73
2019-02-11T03:00:05.843Z,3.70
2019-02-11T03:01:05.829Z,3.78
2019-02-11T03:02:05.817Z,3.78
2019-02-11T03:03:05.815Z,3.81
2019-02-11T03:04:05.800Z,3.78
2019-02-11T03:05:05.812Z,3.78
2019-02-11T03:06:05.778Z,3.88
2019-02-11T03:07:05.762Z,3.76
2019-02-11T03:08:05.758Z,3.85
2019-02-11T03:09:05.777Z,3.84
2019-02-11T03:10:05.731Z,3.85
2019-02-11T03:11:05.722Z,3.88
2019-02-11T03:12:05.707Z,3.94
2019-02-11T03:13:05.742Z,3.91
2019-02-11T03:14:06.483Z,4.00
2019-02-11T03:15:05.679Z,4.02
2019-02-11T03:16:05.672Z,4.03
2019-02-11T03:17:05.686Z,4.08
2019-02-11T03:18:05.647Z,4.08
2019-02-11T03:19:05.651Z,4.10
2019-02-11T03:20:05.625Z,4.08
2019-02-11T03:21:05.618Z,4.21
2019-02-11T03:22:05.602Z,4.20
2019-02-11T03:23:05.620Z,4.21
2019-02-11T03:24:05.606Z,4.24
2019-02-11T03:25:05.583Z,4.21
2019-02-11T03:26:05.557Z,4.30
2019-02-11T03:27:05.548Z,4.20
2019-02-11T03:28:05.541Z,4.38
2019-02-11T03:29:05.524Z,4.35
2019-02-11T03:30:05.562Z,4.23
2019-02-11T03:31:05.506Z,4.36
2019-02-11T03:32:05.497Z,4.35
2019-02-11T03:33:05.480Z,4.35
2019-02-11T03:34:05.511Z,4.34
2019-02-11T03:35:05.463Z,4.38
2019-02-11T03:36:05.458Z,4.30
2019-02-11T03:37:05.436Z,4.31
2019-02-11T03:38:05.426Z,4.38
2019-02-11T03:39:05.417Z,4.41
2019-02-11T03:40:05.433Z,4.39
2019-02-11T03:41:05.394Z,4.34
2019-02-11T03:42:05.422Z,4.36
2019-02-11T03:43:05.373Z,4.43
2019-02-11T03:44:14.616Z,4.49
2019-02-11T03:45:06.351Z,4.34
2019-02-11T03:46:05.345Z,4.36
2019-02-11T03:47:05.359Z,4.41
2019-02-11T03:48:05.327Z,4.21
2019-02-11T03:49:05.340Z,4.02
2019-02-11T03:50:05.303Z,3.92
2019-02-11T03:51:05.293Z,3.84
2019-02-11T03:52:05.277Z,3.85
2019-02-11T03:53:05.263Z,3.91
2019-02-11T03:54:05.252Z,3.91
2019-02-11T03:55:05.273Z,3.90
2019-02-11T03:56:05.263Z,3.92
2019-02-11T03:57:05.223Z,3.98
2019-02-11T03:58:05.205Z,3.96
2019-02-11T03:59:05.204Z,3.96
2019-02-11T04:00:05.234Z,4.00
2019-02-11T04:01:05.176Z,4.06
2019-02-11T04:02:05.171Z,4.00
2019-02-11T04:03:05.156Z,4.05
2019-02-11T04:04:05.146Z,4.05
2019-02-11T04:05:05.130Z,4.03
2019-02-11T04:06:05.153Z,4.05
2019-02-11T04:07:05.116Z,4.05
2019-02-11T04:08:05.105Z,4.10
2019-02-11T04:09:05.092Z,4.16
2019-02-11T04:10:05.081Z,4.13
2019-02-11T04:11:05.066Z,4.21
2019-02-11T04:12:05.090Z,4.18
2019-02-11T04:13:05.053Z,4.12
2019-02-11T04:14:05.043Z,4.23
2019-02-11T04:15:05.028Z,4.13
2019-02-11T04:16:05.056Z,4.13
2019-02-11T04:17:05.000Z,4.21
2019-02-11T04:18:05.000Z,4.21
2019-02-11T04:19:05.012Z,4.20
2019-02-11T04:20:04.968Z,4.17
2019-02-11T04:21:04.997Z,4.17
2019-02-11T04:22:04.944Z,4.23
2019-02-11T04:23:04.935Z,4.28
2019-02-11T04:24:04.929Z,4.23
2019-02-11T04:25:04.915Z,4.35
2019-02-11T04:26:04.903Z,4.34
2019-02-11T04:27:04.931Z,4.41
2019-02-11T04:28:04.885Z,4.35
2019-02-11T04:29:04.871Z,4.46
2019-02-11T04:30:04.871Z,4.48
2019-02-11T04:31:04.852Z,4.46
2019-02-11T04:32:04.842Z,4.57
2019-02-11T04:33:04.862Z,4.53
2019-02-11T04:34:04.818Z,4.46
2019-02-11T04:35:04.810Z,4.51
2019-02-11T04:36:04.796Z,4.56
2019-02-11T04:37:04.789Z,4.45
2019-02-11T04:38:04.774Z,4.51
2019-02-11T04:39:04.790Z,4.49
2019-02-11T04:40:04.757Z,4.49
2019-02-11T04:41:04.740Z,4.59
2019-02-11T04:42:04.732Z,4.59
2019-02-11T04:43:04.719Z,4.60
2019-02-11T04:44:04.741Z,4.51
2019-02-11T04:45:04.730Z,4.61
2019-02-11T04:46:04.690Z,4.56
2019-02-11T04:47:04.679Z,4.56
2019-02-11T04:48:04.664Z,4.60
2019-02-11T04:49:04.688Z,4.56
2019-02-11T04:50:04.647Z,4.54
2019-02-11T04:51:04.633Z,4.67
2019-02-11T04:52:04.618Z,4.61
2019-02-11T04:53:04.619Z,4.53
2019-02-11T04:54:04.601Z,4.61
2019-02-11T04:55:04.623Z,4.63
2019-02-11T04:56:04.582Z,4.69
2019-02-11T04:57:04.572Z,4.56
2019-02-11T04:58:04.556Z,4.59
2019-02-11T04:59:04.578Z,4.61
2019-02-11T05:00:04.542Z,4.66
2019-02-11T05:01:04.555Z,4.61
2019-02-11T05:02:04.511Z,4.63
2019-02-11T05:03:04.499Z,4.66
2019-02-11T05:04:04.490Z,4.77
2019-02-11T05:05:04.514Z,4.72
2019-02-11T05:06:04.506Z,4.71
2019-02-11T05:07:04.459Z,4.61
2019-02-11T05:08:04.447Z,4.60
2019-02-11T05:09:04.435Z,4.66
2019-02-11T05:10:04.430Z,4.63
2019-02-11T05:11:04.417Z,4.61
2019-02-11T05:12:04.437Z,4.64
2019-02-11T05:13:04.439Z,4.57
2019-02-11T05:14:04.392Z,4.64
2019-02-11T05:15:04.367Z,4.64
2019-02-11T05:16:04.430Z,4.60
2019-02-11T05:17:04.348Z,4.60
2019-02-11T05:18:04.336Z,4.57
2019-02-11T05:19:04.355Z,4.66
2019-02-11T05:20:04.350Z,4.69
2019-02-11T05:21:04.315Z,4.67
2019-02-11T05:22:04.292Z,4.69
2019-02-11T05:23:04.282Z,4.67
2019-02-11T05:24:04.278Z,4.72
2019-02-11T05:25:04.258Z,4.69
2019-02-11T05:26:04.283Z,4.78
2019-02-11T05:27:04.246Z,4.69
2019-02-11T05:28:04.231Z,4.74
2019-02-11T05:29:04.214Z,4.71
2019-02-11T05:30:04.216Z,4.71
2019-02-11T05:31:04.194Z,4.74
2019-02-11T05:32:04.220Z,4.72
2019-02-11T05:33:04.182Z,4.69
2019-02-11T05:34:04.164Z,4.72
2019-02-11T05:35:04.153Z,4.75
2019-02-11T05:36:04.139Z,4.78
2019-02-11T05:37:04.126Z,4.72
2019-02-11T05:38:04.161Z,4.77
2019-02-11T05:39:04.108Z,4.72
2019-02-11T05:40:04.101Z,4.79
2019-02-11T05:41:04.088Z,4.77
2019-02-11T05:42:04.072Z,4.75
2019-02-11T05:43:04.096Z,4.72
2019-02-11T05:44:05.875Z,4.72
2019-02-11T05:45:04.041Z,4.71
2019-02-11T05:46:04.031Z,4.66
2019-02-11T05:47:04.018Z,4.72
2019-02-11T05:48:04.042Z,4.74
2019-02-11T05:49:04.028Z,4.66
2019-02-11T05:50:03.992Z,4.67
2019-02-11T05:51:03.975Z,4.63
2019-02-11T05:52:03.966Z,4.66
2019-02-11T05:53:03.961Z,4.64
2019-02-11T05:54:03.976Z,4.63
2019-02-11T05:55:03.952Z,4.64
2019-02-11T05:56:03.919Z,4.61
2019-02-11T05:57:03.910Z,4.66
2019-02-11T05:58:03.897Z,4.69
2019-02-11T05:59:03.891Z,4.66
2019-02-11T06:00:03.933Z,4.67
2019-02-11T06:01:03.874Z,4.75
2019-02-11T06:02:03.861Z,4.69
2019-02-11T06:03:03.859Z,4.75
2019-02-11T06:04:03.836Z,4.72
2019-02-11T06:05:03.840Z,4.66
2019-02-11T06:06:03.851Z,4.67
2019-02-11T06:07:03.800Z,4.69
2019-02-11T06:08:03.790Z,4.61
2019-02-11T06:09:03.785Z,4.74
2019-02-11T06:10:03.779Z,4.71
2019-02-11T06:11:03.761Z,4.74
2019-02-11T06:12:03.782Z,4.75
2019-02-11T06:13:03.736Z,4.74
2019-02-11T06:14:03.733Z,4.67
2019-02-11T06:15:04.829Z,4.72
2019-02-11T06:16:03.715Z,4.72
2019-02-11T06:17:03.696Z,4.72
2019-02-11T06:18:03.732Z,4.74
2019-02-11T06:19:03.678Z,4.72
2019-02-11T06:20:03.667Z,4.75
2019-02-11T06:21:03.688Z,4.78
2019-02-11T06:22:03.646Z,4.82
2019-02-11T06:23:03.641Z,4.83
2019-02-11T06:24:03.618Z,4.74
2019-02-11T06:25:03.611Z,4.72
2019-02-11T06:26:03.597Z,4.71
2019-02-11T06:27:03.633Z,4.78
2019-02-11T06:28:03.589Z,4.75
2019-02-11T06:29:03.561Z,4.74
2019-02-11T06:30:03.550Z,4.74
2019-02-11T06:31:03.545Z,4.72
2019-02-11T06:32:03.546Z,4.75
2019-02-11T06:33:03.551Z,4.74
2019-02-11T06:34:03.517Z,4.69
2019-02-11T06:35:03.521Z,4.75
2019-02-11T06:36:11.741Z,4.71
2019-02-11T06:37:04.478Z,4.75
2019-02-11T06:38:03.465Z,4.69
2019-02-11T06:39:03.487Z,4.78
2019-02-11T06:40:03.450Z,4.77
2019-02-11T06:41:03.432Z,4.71
2019-02-11T06:42:03.418Z,4.77
2019-02-11T06:43:03.410Z,4.83
2019-02-11T06:44:03.400Z,4.74
2019-02-11T06:45:03.430Z,4.75
2019-02-11T06:46:03.375Z,4.66
2019-02-11T06:47:03.375Z,4.71
2019-02-11T06:48:03.357Z,4.74
2019-02-11T06:49:03.345Z,4.75
2019-02-11T06:50:03.343Z,4.75
2019-02-11T06:51:03.356Z,4.78
2019-02-11T06:52:03.316Z,4.75
2019-02-11T06:53:03.348Z,4.71
2019-02-11T06:54:03.325Z,4.72
2019-02-11T06:55:03.280Z,4.77
2019-02-11T06:56:03.309Z,4.78
2019-02-11T06:57:04.292Z,4.79
2019-02-11T06:58:03.247Z,4.79
2019-02-11T06:59:03.246Z,4.82
2019-02-11T07:00:03.227Z,4.79
2019-02-11T07:01:03.243Z,4.79
2019-02-11T07:02:03.240Z,4.86
2019-02-11T07:03:03.206Z,4.88
2019-02-11T07:04:03.183Z,4.91
2019-02-11T07:05:03.214Z,4.83
2019-02-11T07:06:03.193Z,4.82
2019-02-11T07:07:03.156Z,4.88
2019-02-11T07:08:03.157Z,4.83
2019-02-11T07:09:03.126Z,4.89
2019-02-11T07:10:03.123Z,4.91
2019-02-11T07:11:03.150Z,4.96
2019-02-11T07:12:03.121Z,4.93
2019-02-11T07:13:03.092Z,5.00
2019-02-11T07:14:03.069Z,4.97
2019-02-11T07:15:03.097Z,4.89
2019-02-11T07:16:03.060Z,4.85
2019-02-11T07:17:03.048Z,4.88
2019-02-11T07:18:03.029Z,4.91
2019-02-11T07:19:03.018Z,4.88
2019-02-11T07:20:03.037Z,4.85
2019-02-11T07:21:02.998Z,4.86
2019-02-11T07:22:02.989Z,4.97
2019-02-11T07:23:02.982Z,4.91
2019-02-11T07:24:02.968Z,4.91
2019-02-11T07:25:02.956Z,5.00
2019-02-11T07:26:02.981Z,4.91
2019-02-11T07:27:02.955Z,5.00
2019-02-11T07:28:02.926Z,4.89
2019-02-11T07:29:02.909Z,4.91
2019-02-11T07:30:02.938Z,4.93
2019-02-11T07:31:02.897Z,4.94
2019-02-11T07:32:02.881Z,4.94
2019-02-11T07:33:02.865Z,4.96
2019-02-11T07:34:02.855Z,4.97
2019-02-11T07:35:02.857Z,4.97
2019-02-11T07:36:02.865Z,4.94
2019-02-11T07:37:02.830Z,5.01
2019-02-11T07:38:02.841Z,5.03
2019-02-11T07:39:02.807Z,5.04
2019-02-11T07:40:04.073Z,5.00
2019-02-11T07:41:02.775Z,5.15
2019-02-11T07:42:04.670Z,5.04
2019-02-11T07:43:02.790Z,5.01
2019-02-11T07:44:02.762Z,5.01
2019-02-11T07:45:02.776Z,5.04
2019-02-11T07:46:02.739Z,5.01
2019-02-11T07:47:02.755Z,5.14
2019-02-11T07:48:02.702Z,5.11
2019-02-11T07:49:02.698Z,5.07
2019-02-11T07:50:02.707Z,5.01
2019-02-11T07:51:02.721Z,5.12
2019-02-11T07:52:02.659Z,5.06
2019-02-11T07:53:02.670Z,5.14
2019-02-11T07:54:02.637Z,5.07
2019-02-11T07:55:02.676Z,5.14
2019-02-11T07:56:02.629Z,5.07
2019-02-11T07:57:02.625Z,5.15
2019-02-11T07:58:02.607Z,5.11
2019-02-11T07:59:02.627Z,5.00
2019-02-11T08:00:02.631Z,5.01
2019-02-11T08:01:02.577Z,5.06
2019-02-11T08:02:02.569Z,5.03
2019-02-11T08:03:02.549Z,5.11
2019-02-11T08:04:02.552Z,5.14
2019-02-11T08:05:02.541Z,5.11
2019-02-11T08:06:02.573Z,5.04
2019-02-11T08:07:02.516Z,5.03
2019-02-11T08:08:02.503Z,5.04
2019-02-11T08:09:02.495Z,5.11
2019-02-11T08:10:02.474Z,5.11
2019-02-11T08:11:02.532Z,5.11
2019-02-11T08:12:02.450Z,5.11
2019-02-11T08:13:02.439Z,5.11
2019-02-11T08:14:02.433Z,5.16
2019-02-11T08:15:02.438Z,5.15
2019-02-11T08:16:02.426Z,5.15
2019-02-11T08:17:02.487Z,5.25
2019-02-11T08:18:02.392Z,5.22
2019-02-11T08:19:02.390Z,5.27
2019-02-11T08:20:02.429Z,5.24
2019-02-11T08:21:02.360Z,5.19
2019-02-11T08:22:02.363Z,5.29
2019-02-11T08:23:11.065Z,5.21
2019-02-11T08:24:03.321Z,5.25
2019-02-11T08:25:02.347Z,5.25
2019-02-11T08:26:02.315Z,5.29
2019-02-11T08:27:02.302Z,5.22
2019-02-11T08:28:02.277Z,5.24
2019-02-11T08:29:02.266Z,5.24
2019-02-11T08:30:02.256Z,5.27
2019-02-11T08:31:02.298Z,5.29
2019-02-11T08:32:02.243Z,5.36
2019-02-11T08:33:02.241Z,5.43
2019-02-11T08:34:02.213Z,5.36
2019-02-11T08:35:02.243Z,5.44
2019-02-11T08:36:02.200Z,5.41
2019-02-11T08:37:02.180Z,5.47
2019-02-11T08:38:02.169Z,5.50
2019-02-11T08:39:02.287Z,5.57
2019-02-11T08:40:02.150Z,5.51
2019-02-11T08:41:02.174Z,5.57
2019-02-11T08:42:02.125Z,5.55
2019-02-11T08:43:02.113Z,5.52
2019-02-11T08:44:02.160Z,5.58
2019-02-11T08:45:02.128Z,5.57
2019-02-11T08:46:02.088Z,5.57
2019-02-11T08:47:02.095Z,5.57
2019-02-11T08:48:02.063Z,5.66
2019-02-11T08:49:02.052Z,5.62
2019-02-11T08:50:02.069Z,5.61
2019-02-11T08:51:02.074Z,5.54
2019-02-11T08:52:02.023Z,5.54
2019-02-11T08:53:02.022Z,5.52
2019-02-11T08:54:02.036Z,5.55
2019-02-11T08:55:01.998Z,5.57
2019-02-11T08:56:03.433Z,5.58
2019-02-11T08:57:01.968Z,5.52
2019-02-11T08:58:01.952Z,5.55
2019-02-11T08:59:01.978Z,5.54
2019-02-11T09:00:01.938Z,5.54
2019-02-11T09:01:01.915Z,5.51
2019-02-11T09:02:01.905Z,5.50
2019-02-11T09:03:01.911Z,5.51
2019-02-11T09:04:02.021Z,5.33
2019-02-11T09:05:01.879Z,5.48
2019-02-11T09:06:01.879Z,5.47
2019-02-11T09:07:01.880Z,5.47
2019-02-11T09:08:01.860Z,5.52
2019-02-11T09:09:01.834Z,5.54
2019-02-11T09:10:01.891Z,5.55
2019-02-11T09:11:01.829Z,5.65
2019-02-11T09:12:01.834Z,5.70
2019-02-11T09:13:01.809Z,5.73
2019-02-11T09:14:01.784Z,5.75
2019-02-11T09:15:01.763Z,5.94
2019-02-11T09:16:01.760Z,6.08
2019-02-11T09:17:09.844Z,6.16
2019-02-11T09:18:02.764Z,6.25
2019-02-11T09:19:01.739Z,6.16
2019-02-11T09:20:01.714Z,6.18
2019-02-11T09:21:01.701Z,6.18
2019-02-11T09:22:07.329Z,6.11
2019-02-11T09:23:02.687Z,6.19
2019-02-11T09:24:01.698Z,6.12
2019-02-11T09:25:01.665Z,6.08
2019-02-11T09:26:01.655Z,6.16
2019-02-11T09:27:01.677Z,6.03
2019-02-11T09:28:01.636Z,6.15
2019-02-11T09:29:01.640Z,6.09
2019-02-11T09:30:01.604Z,6.13
2019-02-11T09:31:01.592Z,5.94
2019-02-11T09:32:01.595Z,5.97
2019-02-11T09:33:01.603Z,6.05
2019-02-11T09:34:01.567Z,6.09
2019-02-11T09:35:01.607Z,5.98
2019-02-11T09:36:03.351Z,5.94
2019-02-11T09:37:01.561Z,5.91
2019-02-11T09:38:01.526Z,5.88
2019-02-11T09:39:01.505Z,5.84
2019-02-11T09:40:01.499Z,5.93
2019-02-11T09:41:01.496Z,5.97
2019-02-11T09:42:01.480Z,5.97
2019-02-11T09:43:01.494Z,6.03
2019-02-11T09:44:01.460Z,6.06
2019-02-11T09:45:01.492Z,5.94
2019-02-11T09:46:03.855Z,5.94
2019-02-11T09:47:01.454Z,5.90
2019-02-11T09:48:01.409Z,5.94
2019-02-11T09:49:01.423Z,5.87
2019-02-11T09:50:01.393Z,5.84
2019-02-11T09:51:01.402Z,5.91
2019-02-11T09:52:01.417Z,6.02
2019-02-11T09:53:01.357Z,5.93
2019-02-11T09:54:01.345Z,5.97
2019-02-11T09:55:01.333Z,6.06
2019-02-11T09:56:01.381Z,6.05
2019-02-11T09:57:01.316Z,6.03
2019-02-11T09:58:01.300Z,6.12
2019-02-11T09:59:01.299Z,6.13
2019-02-11T10:00:01.290Z,6.18
2019-02-11T10:01:01.283Z,6.25
2019-02-11T10:02:01.293Z,6.13
2019-02-11T10:03:01.277Z,6.12
2019-02-11T10:04:01.238Z,6.19
2019-02-11T10:05:01.286Z,6.18
2019-02-11T10:06:01.216Z,6.18
2019-02-11T10:07:01.285Z,6.28
2019-02-11T10:08:01.196Z,6.19
2019-02-11T10:09:01.182Z,6.18
2019-02-11T10:10:01.173Z,6.19
2019-02-11T10:11:01.172Z,6.16
2019-02-11T10:12:01.148Z,6.16
2019-02-11T10:13:01.169Z,6.19
2019-02-11T10:14:01.162Z,6.15
2019-02-11T10:15:01.122Z,6.30
2019-02-11T10:16:01.130Z,6.28
2019-02-11T10:17:01.095Z,6.28
2019-02-11T10:18:01.118Z,6.30
2019-02-11T10:19:01.086Z,6.19
2019-02-11T10:20:01.066Z,6.21
2019-02-11T10:21:01.069Z,6.21
2019-02-11T10:22:01.135Z,6.32
2019-02-11T10:23:01.084Z,6.30
2019-02-11T10:24:01.019Z,6.43
2019-02-11T10:25:01.013Z,6.35
2019-02-11T10:26:00.999Z,6.40
2019-02-11T10:27:00.997Z,6.42
2019-02-11T10:28:01.005Z,6.50
2019-02-11T10:29:00.971Z,6.47
2019-02-11T10:30:00.962Z,6.55
2019-02-11T10:31:00.945Z,6.61
2019-02-11T10:32:00.934Z,6.67
2019-02-11T10:33:00.952Z,6.57
2019-02-11T10:34:00.914Z,6.71
2019-02-11T10:35:00.913Z,6.79
2019-02-11T10:36:00.936Z,6.70
2019-02-11T10:37:00.878Z,6.78
2019-02-11T10:38:00.941Z,6.78
2019-02-11T10:39:00.858Z,6.86
2019-02-11T10:40:00.848Z,6.79
2019-02-11T10:41:00.862Z,6.79
2019-02-11T10:42:00.823Z,6.88
2019-02-11T10:43:00.815Z,6.79
2019-02-11T10:44:00.849Z,6.82
2019-02-11T10:45:00.790Z,6.97
2019-02-11T10:46:00.799Z,7.13
2019-02-11T10:47:00.779Z,7.11
2019-02-11T10:48:00.823Z,6.97
2019-02-11T10:49:00.754Z,6.96
2019-02-11T10:50:00.773Z,7.06
2019-02-11T10:51:00.744Z,6.97
2019-02-11T10:52:00.735Z,6.99
2019-02-11T10:53:00.716Z,6.92
2019-02-11T10:54:00.691Z,7.01
2019-02-11T10:55:00.690Z,7.06
2019-02-11T10:56:00.752Z,6.93
2019-02-11T10:57:00.665Z,6.85
2019-02-11T10:58:00.659Z,6.78
2019-02-11T10:59:00.661Z,6.75
2019-02-11T11:00:00.633Z,6.74
2019-02-11T11:01:00.618Z,6.67
2019-02-11T11:02:00.687Z,6.74
2019-02-11T11:03:00.628Z,6.73
2019-02-11T11:04:00.606Z,6.79
2019-02-11T11:05:00.580Z,6.85
2019-02-11T11:06:00.568Z,6.81
2019-02-11T11:07:00.550Z,6.81
2019-02-11T11:08:00.541Z,6.78
2019-02-11T11:09:00.565Z,6.97
2019-02-11T11:10:00.585Z,6.92
2019-02-11T11:11:00.511Z,6.85
2019-02-11T11:12:00.538Z,6.88
2019-02-11T11:13:00.497Z,6.88
2019-02-11T11:14:00.478Z,6.86
2019-02-11T11:15:00.475Z,7.03
2019-02-11T11:16:00.463Z,6.91
2019-02-11T11:17:00.453Z,6.93
2019-02-11T11:18:00.473Z,7.07
2019-02-11T11:19:00.427Z,7.10
2019-02-11T11:20:00.447Z,7.03
2019-02-11T11:21:00.402Z,7.03
2019-02-11T11:22:00.423Z,7.04
2019-02-11T11:23:00.403Z,7.11
2019-02-11T11:24:00.369Z,7.06
2019-02-11T11:25:00.428Z,7.06
2019-02-11T11:26:00.359Z,7.15
2019-02-11T11:27:00.387Z,7.11
2019-02-11T11:28:00.329Z,7.16
2019-02-11T11:29:00.323Z,7.07
2019-02-11T11:30:00.365Z,7.10
2019-02-11T11:31:00.303Z,7.18
2019-02-11T11:32:00.298Z,7.26
2019-02-11T11:33:00.310Z,7.28
2019-02-11T11:34:00.265Z,7.46
2019-02-11T11:35:00.296Z,7.31
2019-02-11T11:36:00.273Z,7.31
2019-02-11T11:37:00.229Z,7.33
2019-02-11T11:38:00.217Z,7.33
2019-02-11T11:39:00.216Z,7.46
2019-02-11T11:40:00.258Z,7.60
2019-02-11T11:41:00.185Z,7.55
2019-02-11T11:42:00.199Z,7.55
2019-02-11T11:43:00.160Z,7.55
2019-02-11T11:44:00.150Z,7.61
2019-02-11T11:45:00.180Z,7.55
2019-02-11T11:46:00.172Z,7.55
2019-02-11T11:47:00.146Z,7.58
2019-02-11T11:48:00.154Z,7.66
2019-02-11T11:49:00.121Z,7.64
2019-02-11T11:50:00.146Z,7.64
2019-02-11T11:51:00.085Z,7.61
2019-02-11T11:52:00.076Z,7.68
2019-02-11T11:53:00.056Z,7.62
2019-02-11T11:54:00.090Z,7.43
2019-02-11T11:55:00.055Z,7.40
2019-02-11T11:56:02.225Z,7.28
2019-02-11T11:57:00.029Z,7.40
2019-02-11T11:58:00.009Z,7.44
2019-02-11T11:58:59.998Z,7.54
2019-02-11T12:00:00.012Z,7.46
2019-02-11T12:00:59.973Z,7.42
2019-02-11T12:02:00.004Z,7.58
2019-02-11T12:03:03.523Z,7.50
2019-02-11T12:03:59.958Z,7.57
2019-02-11T12:04:59.930Z,7.57
2019-02-11T12:05:59.942Z,7.61
2019-02-11T12:06:59.907Z,7.64
2019-02-11T12:07:59.936Z,7.68
2019-02-11T12:08:59.902Z,7.68
2019-02-11T12:09:59.881Z,7.57
2019-02-11T12:10:59.859Z,7.66
2019-02-11T12:11:59.856Z,7.62
2019-02-11T12:12:59.866Z,7.64
2019-02-11T12:13:59.875Z,7.58
2019-02-11T12:14:59.823Z,7.77
2019-02-11T12:15:59.884Z,7.62
2019-02-11T12:17:02.790Z,7.69
2019-02-11T12:17:59.807Z,7.66
2019-02-11T12:18:59.779Z,7.64
2019-02-11T12:19:59.758Z,7.69
2019-02-11T12:20:59.759Z,7.76
2019-02-11T12:21:59.773Z,7.77
2019-02-11T12:22:59.737Z,7.77
2019-02-11T12:23:59.724Z,7.76
2019-02-11T12:24:59.728Z,7.74
2019-02-11T12:25:59.694Z,7.80
2019-02-11T12:26:59.723Z,7.87
2019-02-11T12:27:59.688Z,7.80
2019-02-11T12:28:59.670Z,7.87
2019-02-11T12:29:59.670Z,7.81
2019-02-11T12:30:59.658Z,7.91
2019-02-11T12:31:59.635Z,7.86
2019-02-11T12:32:59.655Z,7.91
2019-02-11T12:33:59.622Z,7.80
2019-02-11T12:34:59.603Z,7.74
2019-02-11T12:35:59.600Z,7.69
2019-02-11T12:36:59.612Z,7.69
2019-02-11T12:37:59.562Z,7.55
2019-02-11T12:38:59.555Z,7.60
2019-02-11T12:39:59.546Z,7.61
2019-02-11T12:40:59.541Z,7.58
2019-02-11T12:41:59.555Z,7.62
2019-02-11T12:42:59.523Z,7.62
2019-02-11T12:43:59.506Z,7.61
2019-02-11T12:44:59.514Z,7.55
2019-02-11T12:45:59.479Z,7.52
2019-02-11T12:47:13.186Z,7.71
2019-02-11T12:48:00.535Z,7.66
2019-02-11T12:49:01.688Z,7.68
2019-02-11T12:49:59.438Z,7.76
2019-02-11T12:50:59.462Z,7.87
2019-02-11T12:51:59.440Z,7.77
2019-02-11T12:52:59.400Z,7.64
2019-02-11T12:53:59.401Z,7.62
2019-02-11T12:54:59.389Z,7.62
2019-02-11T12:56:02.570Z,7.69
2019-02-11T12:56:59.395Z,7.60
2019-02-11T12:57:59.347Z,7.62
2019-02-11T12:58:59.336Z,7.61
2019-02-11T12:59:59.329Z,7.61
2019-02-11T13:00:59.332Z,7.64
2019-02-11T13:01:59.321Z,7.57
2019-02-11T13:02:59.338Z,7.52
2019-02-11T13:03:59.275Z,7.44
2019-02-11T13:04:59.271Z,7.33
2019-02-11T13:05:59.267Z,7.28
2019-02-11T13:06:59.259Z,7.13
2019-02-11T13:07:59.247Z,7.16
2019-02-11T13:08:59.282Z,7.16
2019-02-11T13:09:59.216Z,7.16
2019-02-11T13:10:59.240Z,7.16
2019-02-11T13:11:59.227Z,7.11
2019-02-11T13:12:59.198Z,7.06
2019-02-11T13:13:59.183Z,7.13
2019-02-11T13:14:59.175Z,7.10
2019-02-11T13:16:02.539Z,7.07
2019-02-11T13:16:59.141Z,7.13
2019-02-11T13:17:59.371Z,7.15